sensor_id;sensor_type;location;lat;lon;timestamp;temperature;humidity
52044;DHT22;38053;53.100;6.078;2023-06-19T00:00:12;21.10;99.90
52044;DHT22;38053;53.100;6.078;2023-06-19T00:02:39;21.10;99.90
52044;DHT22;38053;53.100;6.078;2023-06-19T00:05:06;21.10;99.90
52044;DHT22;38053;53.100;6.078;2023-06-19T00:07:33;21.10;99.90
52044;DHT22;38053;53.100;6.078;2023-06-19T00:09:59;21.10;99.90
52044;DHT22;38053;53.100;6.078;2023-06-19T00:12:25;21.10;99.90
52044;DHT22;38053;53.100;6.078;2023-06-19T00:14:50;21.10;99.90
52044;DHT22;38053;53.100;6.078;2023-06-19T00:17:16;21.00;99.90
52044;DHT22;38053;53.100;6.078;2023-06-19T00:19:43;21.00;99.90
52044;DHT22;38053;53.100;6.078;2023-06-19T00:22:09;21.00;99.90
52044;DHT22;38053;53.100;6.078;2023-06-19T00:24:34;21.00;99.90
52044;DHT22;38053;53.100;6.078;2023-06-19T00:27:00;21.00;99.90
52044;DHT22;38053;53.100;6.078;2023-06-19T00:29:28;21.00;99.90
52044;DHT22;38053;53.100;6.078;2023-06-19T00:31:54;21.00;99.90
52044;DHT22;38053;53.100;6.078;2023-06-19T00:34:20;21.00;99.90
52044;DHT22;38053;53.100;6.078;2023-06-19T00:36:45;21.00;99.90
52044;DHT22;38053;53.100;6.078;2023-06-19T00:39:12;21.00;99.90
52044;DHT22;38053;53.100;6.078;2023-06-19T00:41:38;20.90;99.90
52044;DHT22;38053;53.100;6.078;2023-06-19T00:44:04;21.00;99.90
52044;DHT22;38053;53.100;6.078;2023-06-19T00:46:31;20.90;99.90
52044;DHT22;38053;53.100;6.078;2023-06-19T00:48:57;21.00;99.90
52044;DHT22;38053;53.100;6.078;2023-06-19T00:51:23;21.00;99.90
52044;DHT22;38053;53.100;6.078;2023-06-19T00:53:49;21.00;99.90
52044;DHT22;38053;53.100;6.078;2023-06-19T00:56:15;21.00;99.90
52044;DHT22;38053;53.100;6.078;2023-06-19T00:58:44;20.90;99.90
52044;DHT22;38053;53.100;6.078;2023-06-19T01:01:10;20.90;99.90
52044;DHT22;38053;53.100;6.078;2023-06-19T01:03:37;20.90;99.90
52044;DHT22;38053;53.100;6.078;2023-06-19T01:06:08;20.90;99.90
52044;DHT22;38053;53.100;6.078;2023-06-19T01:11:15;20.90;99.90
52044;DHT22;38053;53.100;6.078;2023-06-19T01:14:15;20.90;99.90
52044;DHT22;38053;53.100;6.078;2023-06-19T01:16:43;20.90;99.90
52044;DHT22;38053;53.100;6.078;2023-06-19T01:19:10;20.90;99.90
52044;DHT22;38053;53.100;6.078;2023-06-19T01:21:41;20.80;99.90
52044;DHT22;38053;53.100;6.078;2023-06-19T01:24:07;20.80;99.90
52044;DHT22;38053;53.100;6.078;2023-06-19T01:26:32;20.80;99.90
52044;DHT22;38053;53.100;6.078;2023-06-19T01:28:58;20.80;99.90
52044;DHT22;38053;53.100;6.078;2023-06-19T01:31:33;20.80;99.90
52044;DHT22;38053;53.100;6.078;2023-06-19T01:34:01;20.90;99.90
52044;DHT22;38053;53.100;6.078;2023-06-19T01:36:28;20.90;99.90
52044;DHT22;38053;53.100;6.078;2023-06-19T01:38:56;20.90;99.90
52044;DHT22;38053;53.100;6.078;2023-06-19T01:41:23;20.90;99.90
52044;DHT22;38053;53.100;6.078;2023-06-19T01:43:49;20.90;99.90
52044;DHT22;38053;53.100;6.078;2023-06-19T01:46:16;20.90;99.90
52044;DHT22;38053;53.100;6.078;2023-06-19T01:48:41;20.90;99.90
52044;DHT22;38053;53.100;6.078;2023-06-19T01:51:07;20.90;99.90
52044;DHT22;38053;53.100;6.078;2023-06-19T01:53:33;20.80;99.90
52044;DHT22;38053;53.100;6.078;2023-06-19T01:56:02;20.80;99.90
52044;DHT22;38053;53.100;6.078;2023-06-19T01:58:28;20.80;99.90
52044;DHT22;38053;53.100;6.078;2023-06-19T02:00:54;20.80;99.90
52044;DHT22;38053;53.100;6.078;2023-06-19T02:03:20;20.80;99.90
52044;DHT22;38053;53.100;6.078;2023-06-19T02:05:46;20.80;99.90
52044;DHT22;38053;53.100;6.078;2023-06-19T02:08:12;20.80;99.90
52044;DHT22;38053;53.100;6.078;2023-06-19T02:10:38;20.80;99.90
52044;DHT22;38053;53.100;6.078;2023-06-19T02:13:03;20.80;99.90
52044;DHT22;38053;53.100;6.078;2023-06-19T02:15:29;20.80;99.90
52044;DHT22;38053;53.100;6.078;2023-06-19T02:17:55;20.80;99.90
52044;DHT22;38053;53.100;6.078;2023-06-19T02:20:22;20.80;99.90
52044;DHT22;38053;53.100;6.078;2023-06-19T02:22:50;20.70;99.90
52044;DHT22;38053;53.100;6.078;2023-06-19T02:25:16;20.70;99.90
52044;DHT22;38053;53.100;6.078;2023-06-19T02:27:41;20.70;99.90
52044;DHT22;38053;53.100;6.078;2023-06-19T02:30:07;20.70;99.90
52044;DHT22;38053;53.100;6.078;2023-06-19T02:32:33;20.70;99.90
52044;DHT22;38053;53.100;6.078;2023-06-19T02:34:59;20.70;99.90
52044;DHT22;38053;53.100;6.078;2023-06-19T02:37:24;20.70;99.90
52044;DHT22;38053;53.100;6.078;2023-06-19T02:39:50;20.70;99.90
52044;DHT22;38053;53.100;6.078;2023-06-19T02:42:16;20.60;99.90
52044;DHT22;38053;53.100;6.078;2023-06-19T02:44:42;20.60;99.90
52044;DHT22;38053;53.100;6.078;2023-06-19T02:47:11;20.50;99.90
52044;DHT22;38053;53.100;6.078;2023-06-19T02:49:36;20.50;99.90
52044;DHT22;38053;53.100;6.078;2023-06-19T02:52:02;20.50;99.90
52044;DHT22;38053;53.100;6.078;2023-06-19T02:54:28;20.50;99.90
52044;DHT22;38053;53.100;6.078;2023-06-19T02:56:54;20.40;99.90
52044;DHT22;38053;53.100;6.078;2023-06-19T02:59:19;20.50;99.90
52044;DHT22;38053;53.100;6.078;2023-06-19T03:01:45;20.40;99.90
52044;DHT22;38053;53.100;6.078;2023-06-19T03:04:11;20.50;99.90
52044;DHT22;38053;53.100;6.078;2023-06-19T03:06:38;20.40;99.90
52044;DHT22;38053;53.100;6.078;2023-06-19T03:09:08;20.40;99.90
52044;DHT22;38053;53.100;6.078;2023-06-19T03:11:41;20.40;99.90
52044;DHT22;38053;53.100;6.078;2023-06-19T03:14:07;20.40;99.90
52044;DHT22;38053;53.100;6.078;2023-06-19T03:16:34;20.30;99.90
52044;DHT22;38053;53.100;6.078;2023-06-19T03:19:00;20.30;99.90
52044;DHT22;38053;53.100;6.078;2023-06-19T03:21:25;20.20;99.90
52044;DHT22;38053;53.100;6.078;2023-06-19T03:23:51;20.20;99.90
52044;DHT22;38053;53.100;6.078;2023-06-19T03:26:19;20.20;99.90
52044;DHT22;38053;53.100;6.078;2023-06-19T03:28:45;20.20;99.90
52044;DHT22;38053;53.100;6.078;2023-06-19T03:31:13;20.20;99.90
52044;DHT22;38053;53.100;6.078;2023-06-19T03:33:39;20.20;99.90
52044;DHT22;38053;53.100;6.078;2023-06-19T03:36:05;20.10;99.90
52044;DHT22;38053;53.100;6.078;2023-06-19T03:38:31;20.10;99.90
52044;DHT22;38053;53.100;6.078;2023-06-19T03:40:57;20.10;99.90
52044;DHT22;38053;53.100;6.078;2023-06-19T03:43:22;20.10;99.90
52044;DHT22;38053;53.100;6.078;2023-06-19T03:45:48;20.10;99.90
52044;DHT22;38053;53.100;6.078;2023-06-19T03:48:16;20.10;99.90
52044;DHT22;38053;53.100;6.078;2023-06-19T03:50:42;20.10;99.90
52044;DHT22;38053;53.100;6.078;2023-06-19T03:53:08;20.10;99.90
52044;DHT22;38053;53.100;6.078;2023-06-19T03:55:33;20.00;99.90
52044;DHT22;38053;53.100;6.078;2023-06-19T03:57:59;20.00;99.90
52044;DHT22;38053;53.100;6.078;2023-06-19T04:00:25;20.00;99.90
52044;DHT22;38053;53.100;6.078;2023-06-19T04:02:51;20.00;99.90
52044;DHT22;38053;53.100;6.078;2023-06-19T04:05:16;19.90;99.90
52044;DHT22;38053;53.100;6.078;2023-06-19T04:07:42;19.90;99.90
52044;DHT22;38053;53.100;6.078;2023-06-19T04:10:08;19.80;99.90
52044;DHT22;38053;53.100;6.078;2023-06-19T04:12:34;19.80;99.90
52044;DHT22;38053;53.100;6.078;2023-06-19T04:15:00;19.80;99.90
52044;DHT22;38053;53.100;6.078;2023-06-19T04:17:25;19.80;99.90
52044;DHT22;38053;53.100;6.078;2023-06-19T04:19:51;19.80;99.90
52044;DHT22;38053;53.100;6.078;2023-06-19T04:22:17;19.70;99.90
52044;DHT22;38053;53.100;6.078;2023-06-19T04:24:42;19.70;99.90
52044;DHT22;38053;53.100;6.078;2023-06-19T04:27:08;19.70;99.90
52044;DHT22;38053;53.100;6.078;2023-06-19T04:29:34;19.70;99.90
52044;DHT22;38053;53.100;6.078;2023-06-19T04:32:01;19.70;99.90
52044;DHT22;38053;53.100;6.078;2023-06-19T04:34:29;19.70;99.90
52044;DHT22;38053;53.100;6.078;2023-06-19T04:36:55;19.70;99.90
52044;DHT22;38053;53.100;6.078;2023-06-19T04:39:24;19.80;99.90
52044;DHT22;38053;53.100;6.078;2023-06-19T04:41:49;19.90;99.90
52044;DHT22;38053;53.100;6.078;2023-06-19T04:44:15;19.90;99.90
52044;DHT22;38053;53.100;6.078;2023-06-19T04:46:42;20.00;99.90
52044;DHT22;38053;53.100;6.078;2023-06-19T04:49:09;20.00;99.90
52044;DHT22;38053;53.100;6.078;2023-06-19T04:51:35;20.00;99.90
52044;DHT22;38053;53.100;6.078;2023-06-19T04:54:00;20.10;99.90
52044;DHT22;38053;53.100;6.078;2023-06-19T04:56:26;20.10;99.90
52044;DHT22;38053;53.100;6.078;2023-06-19T04:58:52;20.10;99.90
52044;DHT22;38053;53.100;6.078;2023-06-19T05:01:19;20.20;99.90
52044;DHT22;38053;53.100;6.078;2023-06-19T05:03:52;20.20;99.90
52044;DHT22;38053;53.100;6.078;2023-06-19T05:06:18;20.30;99.90
52044;DHT22;38053;53.100;6.078;2023-06-19T05:08:44;20.30;99.90
52044;DHT22;38053;53.100;6.078;2023-06-19T05:11:09;20.40;99.90
52044;DHT22;38053;53.100;6.078;2023-06-19T05:13:35;20.50;99.90
52044;DHT22;38053;53.100;6.078;2023-06-19T05:16:01;20.50;99.90
52044;DHT22;38053;53.100;6.078;2023-06-19T05:18:26;20.50;99.90
52044;DHT22;38053;53.100;6.078;2023-06-19T05:20:52;20.50;99.90
52044;DHT22;38053;53.100;6.078;2023-06-19T05:23:18;20.50;99.90
52044;DHT22;38053;53.100;6.078;2023-06-19T05:25:44;20.50;99.90
52044;DHT22;38053;53.100;6.078;2023-06-19T05:28:09;20.50;99.90
52044;DHT22;38053;53.100;6.078;2023-06-19T05:30:35;20.50;99.90
52044;DHT22;38053;53.100;6.078;2023-06-19T05:33:01;20.50;99.90
52044;DHT22;38053;53.100;6.078;2023-06-19T05:35:27;20.50;99.90
52044;DHT22;38053;53.100;6.078;2023-06-19T05:37:52;20.40;99.90
52044;DHT22;38053;53.100;6.078;2023-06-19T05:40:18;20.40;99.90
52044;DHT22;38053;53.100;6.078;2023-06-19T05:42:44;20.40;99.90
52044;DHT22;38053;53.100;6.078;2023-06-19T05:45:11;20.40;99.90
52044;DHT22;38053;53.100;6.078;2023-06-19T05:47:36;20.50;99.90
52044;DHT22;38053;53.100;6.078;2023-06-19T05:50:02;20.50;99.90
52044;DHT22;38053;53.100;6.078;2023-06-19T05:52:28;20.50;99.90
52044;DHT22;38053;53.100;6.078;2023-06-19T05:54:54;20.60;99.90
52044;DHT22;38053;53.100;6.078;2023-06-19T05:57:20;20.60;99.90
52044;DHT22;38053;53.100;6.078;2023-06-19T05:59:48;20.70;99.90
52044;DHT22;38053;53.100;6.078;2023-06-19T06:02:18;20.70;99.90
52044;DHT22;38053;53.100;6.078;2023-06-19T06:04:44;20.70;99.90
52044;DHT22;38053;53.100;6.078;2023-06-19T06:07:10;20.80;99.90
52044;DHT22;38053;53.100;6.078;2023-06-19T06:09:36;20.90;99.90
52044;DHT22;38053;53.100;6.078;2023-06-19T06:12:02;21.10;99.90
52044;DHT22;38053;53.100;6.078;2023-06-19T06:14:27;21.10;99.90
52044;DHT22;38053;53.100;6.078;2023-06-19T06:16:53;21.10;99.90
52044;DHT22;38053;53.100;6.078;2023-06-19T06:19:22;21.10;99.90
52044;DHT22;38053;53.100;6.078;2023-06-19T06:21:51;21.10;99.90
52044;DHT22;38053;53.100;6.078;2023-06-19T06:24:17;21.10;99.90
52044;DHT22;38053;53.100;6.078;2023-06-19T06:26:43;21.00;99.90
52044;DHT22;38053;53.100;6.078;2023-06-19T06:29:08;20.90;99.90
52044;DHT22;38053;53.100;6.078;2023-06-19T06:31:37;20.90;99.90
52044;DHT22;38053;53.100;6.078;2023-06-19T06:34:03;20.80;99.90
52044;DHT22;38053;53.100;6.078;2023-06-19T06:36:29;20.80;99.90
52044;DHT22;38053;53.100;6.078;2023-06-19T06:38:55;20.70;99.90
52044;DHT22;38053;53.100;6.078;2023-06-19T06:41:21;20.50;99.90
52044;DHT22;38053;53.100;6.078;2023-06-19T06:43:46;20.40;99.90
52044;DHT22;38053;53.100;6.078;2023-06-19T06:46:12;20.30;99.90
52044;DHT22;38053;53.100;6.078;2023-06-19T06:48:38;20.20;99.90
52044;DHT22;38053;53.100;6.078;2023-06-19T06:51:03;20.10;99.90
52044;DHT22;38053;53.100;6.078;2023-06-19T06:53:29;20.10;99.90
52044;DHT22;38053;53.100;6.078;2023-06-19T06:55:58;20.00;99.90
52044;DHT22;38053;53.100;6.078;2023-06-19T06:58:25;20.00;99.90
52044;DHT22;38053;53.100;6.078;2023-06-19T07:00:51;20.00;99.90
52044;DHT22;38053;53.100;6.078;2023-06-19T07:03:17;19.90;99.90
52044;DHT22;38053;53.100;6.078;2023-06-19T07:05:44;19.90;99.90
52044;DHT22;38053;53.100;6.078;2023-06-19T07:08:09;19.90;99.90
52044;DHT22;38053;53.100;6.078;2023-06-19T07:10:35;19.90;99.90
52044;DHT22;38053;53.100;6.078;2023-06-19T07:13:01;19.90;99.90
52044;DHT22;38053;53.100;6.078;2023-06-19T07:15:26;20.00;99.90
52044;DHT22;38053;53.100;6.078;2023-06-19T07:17:52;20.00;99.90
52044;DHT22;38053;53.100;6.078;2023-06-19T07:20:18;20.10;99.90
52044;DHT22;38053;53.100;6.078;2023-06-19T07:22:44;20.00;99.90
52044;DHT22;38053;53.100;6.078;2023-06-19T07:25:11;20.00;99.90
52044;DHT22;38053;53.100;6.078;2023-06-19T07:27:37;20.00;99.90
52044;DHT22;38053;53.100;6.078;2023-06-19T07:30:03;20.00;99.90
52044;DHT22;38053;53.100;6.078;2023-06-19T07:32:29;20.00;99.90
52044;DHT22;38053;53.100;6.078;2023-06-19T07:34:55;20.00;99.90
52044;DHT22;38053;53.100;6.078;2023-06-19T07:37:20;20.00;99.90
52044;DHT22;38053;53.100;6.078;2023-06-19T07:39:47;20.00;99.90
52044;DHT22;38053;53.100;6.078;2023-06-19T07:42:15;20.10;99.90
52044;DHT22;38053;53.100;6.078;2023-06-19T07:44:41;20.10;99.90
52044;DHT22;38053;53.100;6.078;2023-06-19T07:47:08;20.10;99.90
52044;DHT22;38053;53.100;6.078;2023-06-19T07:49:34;20.20;99.90
52044;DHT22;38053;53.100;6.078;2023-06-19T07:52:00;20.20;99.90
52044;DHT22;38053;53.100;6.078;2023-06-19T07:54:25;20.20;99.90
52044;DHT22;38053;53.100;6.078;2023-06-19T07:56:51;20.20;99.90
52044;DHT22;38053;53.100;6.078;2023-06-19T07:59:17;20.20;99.90
52044;DHT22;38053;53.100;6.078;2023-06-19T08:01:43;20.20;99.90
52044;DHT22;38053;53.100;6.078;2023-06-19T08:04:09;20.10;99.90
52044;DHT22;38053;53.100;6.078;2023-06-19T08:06:35;20.00;99.90
52044;DHT22;38053;53.100;6.078;2023-06-19T08:09:01;19.90;99.90
52044;DHT22;38053;53.100;6.078;2023-06-19T08:11:27;19.80;99.90
52044;DHT22;38053;53.100;6.078;2023-06-19T08:13:53;19.80;99.90
52044;DHT22;38053;53.100;6.078;2023-06-19T08:16:19;19.90;99.90
52044;DHT22;38053;53.100;6.078;2023-06-19T08:18:45;19.90;99.90
52044;DHT22;38053;53.100;6.078;2023-06-19T08:21:11;19.80;99.90
52044;DHT22;38053;53.100;6.078;2023-06-19T08:23:37;19.90;99.90
52044;DHT22;38053;53.100;6.078;2023-06-19T08:26:09;20.10;99.90
52044;DHT22;38053;53.100;6.078;2023-06-19T08:28:35;20.20;99.90
52044;DHT22;38053;53.100;6.078;2023-06-19T08:31:01;20.20;99.90
52044;DHT22;38053;53.100;6.078;2023-06-19T08:33:26;20.20;99.90
52044;DHT22;38053;53.100;6.078;2023-06-19T08:35:52;20.20;99.90
52044;DHT22;38053;53.100;6.078;2023-06-19T08:38:18;20.20;99.90
52044;DHT22;38053;53.100;6.078;2023-06-19T08:40:44;20.20;99.90
52044;DHT22;38053;53.100;6.078;2023-06-19T08:43:10;20.10;99.90
52044;DHT22;38053;53.100;6.078;2023-06-19T08:45:39;20.00;99.90
52044;DHT22;38053;53.100;6.078;2023-06-19T08:48:05;19.90;99.90
52044;DHT22;38053;53.100;6.078;2023-06-19T08:50:33;19.90;99.90
52044;DHT22;38053;53.100;6.078;2023-06-19T08:52:59;19.90;99.90
52044;DHT22;38053;53.100;6.078;2023-06-19T08:55:25;20.00;99.90
52044;DHT22;38053;53.100;6.078;2023-06-19T08:57:52;20.00;99.90
52044;DHT22;38053;53.100;6.078;2023-06-19T09:00:25;20.00;99.90
52044;DHT22;38053;53.100;6.078;2023-06-19T09:02:51;20.00;99.90
52044;DHT22;38053;53.100;6.078;2023-06-19T09:05:19;20.10;99.90
52044;DHT22;38053;53.100;6.078;2023-06-19T09:07:57;20.10;99.90
52044;DHT22;38053;53.100;6.078;2023-06-19T09:10:24;20.10;99.90
52044;DHT22;38053;53.100;6.078;2023-06-19T09:13:04;20.10;99.90
52044;DHT22;38053;53.100;6.078;2023-06-19T09:15:35;20.00;99.90
52044;DHT22;38053;53.100;6.078;2023-06-19T09:18:06;20.00;99.90
52044;DHT22;38053;53.100;6.078;2023-06-19T09:20:38;20.00;99.90
52044;DHT22;38053;53.100;6.078;2023-06-19T09:23:07;19.90;99.90
52044;DHT22;38053;53.100;6.078;2023-06-19T09:25:46;19.90;99.90
52044;DHT22;38053;53.100;6.078;2023-06-19T09:28:26;19.90;99.90
52044;DHT22;38053;53.100;6.078;2023-06-19T09:30:59;19.90;99.90
52044;DHT22;38053;53.100;6.078;2023-06-19T09:33:26;19.80;99.90
52044;DHT22;38053;53.100;6.078;2023-06-19T09:35:54;19.90;99.90
52044;DHT22;38053;53.100;6.078;2023-06-19T09:38:24;20.00;99.90
52044;DHT22;38053;53.100;6.078;2023-06-19T09:40:52;20.10;99.90
52044;DHT22;38053;53.100;6.078;2023-06-19T09:43:26;20.20;99.90
52044;DHT22;38053;53.100;6.078;2023-06-19T09:45:55;20.30;99.90
52044;DHT22;38053;53.100;6.078;2023-06-19T09:48:29;20.40;99.90
52044;DHT22;38053;53.100;6.078;2023-06-19T09:51:01;20.40;99.90
52044;DHT22;38053;53.100;6.078;2023-06-19T09:53:27;20.50;99.90
52044;DHT22;38053;53.100;6.078;2023-06-19T09:55:53;20.60;99.90
52044;DHT22;38053;53.100;6.078;2023-06-19T09:58:21;20.60;99.90
52044;DHT22;38053;53.100;6.078;2023-06-19T10:00:49;20.60;99.90
52044;DHT22;38053;53.100;6.078;2023-06-19T10:03:16;20.50;99.90
52044;DHT22;38053;53.100;6.078;2023-06-19T10:05:43;20.40;99.90
52044;DHT22;38053;53.100;6.078;2023-06-19T10:08:08;20.40;99.90
52044;DHT22;38053;53.100;6.078;2023-06-19T10:10:34;20.30;99.90
52044;DHT22;38053;53.100;6.078;2023-06-19T10:13:13;20.20;99.90
52044;DHT22;38053;53.100;6.078;2023-06-19T10:15:43;20.20;99.90
52044;DHT22;38053;53.100;6.078;2023-06-19T10:18:14;20.20;99.90
52044;DHT22;38053;53.100;6.078;2023-06-19T10:20:45;20.40;99.90
52044;DHT22;38053;53.100;6.078;2023-06-19T10:23:14;20.50;99.90
52044;DHT22;38053;53.100;6.078;2023-06-19T10:25:48;20.60;99.90
52044;DHT22;38053;53.100;6.078;2023-06-19T10:28:25;20.90;99.90
52044;DHT22;38053;53.100;6.078;2023-06-19T10:31:10;21.10;99.90
52044;DHT22;38053;53.100;6.078;2023-06-19T10:33:37;21.30;99.90
52044;DHT22;38053;53.100;6.078;2023-06-19T10:36:17;21.80;99.90
52044;DHT22;38053;53.100;6.078;2023-06-19T10:38:43;22.30;99.90
52044;DHT22;38053;53.100;6.078;2023-06-19T10:41:19;22.30;99.90
52044;DHT22;38053;53.100;6.078;2023-06-19T10:43:59;22.30;99.90
52044;DHT22;38053;53.100;6.078;2023-06-19T10:46:34;22.10;99.90
52044;DHT22;38053;53.100;6.078;2023-06-19T10:49:05;21.90;99.90
52044;DHT22;38053;53.100;6.078;2023-06-19T10:51:35;21.80;99.90
52044;DHT22;38053;53.100;6.078;2023-06-19T10:54:01;21.70;99.90
52044;DHT22;38053;53.100;6.078;2023-06-19T10:56:27;21.80;99.90
52044;DHT22;38053;53.100;6.078;2023-06-19T10:59:07;22.10;99.90
52044;DHT22;38053;53.100;6.078;2023-06-19T11:01:35;22.20;99.90
52044;DHT22;38053;53.100;6.078;2023-06-19T11:04:09;22.30;99.90
52044;DHT22;38053;53.100;6.078;2023-06-19T11:06:36;22.40;99.90
52044;DHT22;38053;53.100;6.078;2023-06-19T11:09:03;22.40;99.90
52044;DHT22;38053;53.100;6.078;2023-06-19T11:11:45;22.50;99.90
52044;DHT22;38053;53.100;6.078;2023-06-19T11:14:11;22.30;99.90
52044;DHT22;38053;53.100;6.078;2023-06-19T11:16:39;22.30;99.90
52044;DHT22;38053;53.100;6.078;2023-06-19T11:19:20;22.30;99.90
52044;DHT22;38053;53.100;6.078;2023-06-19T11:21:48;22.50;99.90
52044;DHT22;38053;53.100;6.078;2023-06-19T11:24:15;22.80;99.90
52044;DHT22;38053;53.100;6.078;2023-06-19T11:26:42;22.80;99.90
52044;DHT22;38053;53.100;6.078;2023-06-19T11:29:25;22.50;99.90
52044;DHT22;38053;53.100;6.078;2023-06-19T11:31:53;22.50;99.90
52044;DHT22;38053;53.100;6.078;2023-06-19T11:34:20;22.40;99.90
52044;DHT22;38053;53.100;6.078;2023-06-19T11:36:56;22.40;99.90
52044;DHT22;38053;53.100;6.078;2023-06-19T11:39:22;22.60;99.90
52044;DHT22;38053;53.100;6.078;2023-06-19T11:41:47;22.60;99.90
52044;DHT22;38053;53.100;6.078;2023-06-19T11:44:14;22.70;99.90
52044;DHT22;38053;53.100;6.078;2023-06-19T11:46:40;22.60;99.90
52044;DHT22;38053;53.100;6.078;2023-06-19T11:51:38;22.50;99.90
52044;DHT22;38053;53.100;6.078;2023-06-19T11:54:08;22.60;99.90
52044;DHT22;38053;53.100;6.078;2023-06-19T11:56:38;22.60;99.90
52044;DHT22;38053;53.100;6.078;2023-06-19T11:59:04;22.80;99.90
52044;DHT22;38053;53.100;6.078;2023-06-19T12:01:34;23.20;99.90
52044;DHT22;38053;53.100;6.078;2023-06-19T12:04:01;23.50;99.90
52044;DHT22;38053;53.100;6.078;2023-06-19T12:06:27;23.90;99.90
52044;DHT22;38053;53.100;6.078;2023-06-19T12:08:53;24.20;99.90
52044;DHT22;38053;53.100;6.078;2023-06-19T12:11:19;24.30;99.90
52044;DHT22;38053;53.100;6.078;2023-06-19T12:13:44;24.30;99.90
52044;DHT22;38053;53.100;6.078;2023-06-19T12:16:10;24.50;99.90
52044;DHT22;38053;53.100;6.078;2023-06-19T12:18:36;24.70;99.90
52044;DHT22;38053;53.100;6.078;2023-06-19T12:21:03;24.70;99.90
52044;DHT22;38053;53.100;6.078;2023-06-19T12:23:28;24.70;99.90
52044;DHT22;38053;53.100;6.078;2023-06-19T12:25:54;24.80;99.90
52044;DHT22;38053;53.100;6.078;2023-06-19T12:28:20;24.90;99.90
52044;DHT22;38053;53.100;6.078;2023-06-19T12:30:47;25.00;99.90
52044;DHT22;38053;53.100;6.078;2023-06-19T12:33:20;25.10;99.90
52044;DHT22;38053;53.100;6.078;2023-06-19T12:35:46;25.30;99.90
52044;DHT22;38053;53.100;6.078;2023-06-19T12:38:12;25.50;99.90
52044;DHT22;38053;53.100;6.078;2023-06-19T12:40:38;25.80;99.90
52044;DHT22;38053;53.100;6.078;2023-06-19T12:43:04;26.20;99.90
52044;DHT22;38053;53.100;6.078;2023-06-19T12:45:30;26.50;99.90
52044;DHT22;38053;53.100;6.078;2023-06-19T12:47:56;26.90;99.90
52044;DHT22;38053;53.100;6.078;2023-06-19T12:50:21;27.20;99.90
52044;DHT22;38053;53.100;6.078;2023-06-19T12:52:48;27.30;99.90
52044;DHT22;38053;53.100;6.078;2023-06-19T12:55:14;27.60;99.90
52044;DHT22;38053;53.100;6.078;2023-06-19T12:57:40;27.70;99.90
52044;DHT22;38053;53.100;6.078;2023-06-19T13:00:10;27.80;99.90
52044;DHT22;38053;53.100;6.078;2023-06-19T13:02:40;28.30;99.90
52044;DHT22;38053;53.100;6.078;2023-06-19T13:05:09;28.30;99.60
52044;DHT22;38053;53.100;6.078;2023-06-19T13:07:35;28.20;99.90
52044;DHT22;38053;53.100;6.078;2023-06-19T13:10:00;28.80;99.90
52044;DHT22;38053;53.100;6.078;2023-06-19T13:12:26;28.80;99.50
52044;DHT22;38053;53.100;6.078;2023-06-19T13:14:52;29.00;99.10
52044;DHT22;38053;53.100;6.078;2023-06-19T13:17:18;29.30;99.70
52044;DHT22;38053;53.100;6.078;2023-06-19T13:19:44;29.50;98.00
52044;DHT22;38053;53.100;6.078;2023-06-19T13:22:10;29.30;98.70
52044;DHT22;38053;53.100;6.078;2023-06-19T13:24:35;29.30;98.40
52044;DHT22;38053;53.100;6.078;2023-06-19T13:27:01;29.00;97.00
52044;DHT22;38053;53.100;6.078;2023-06-19T13:29:27;29.20;98.90
52044;DHT22;38053;53.100;6.078;2023-06-19T13:31:54;29.40;96.40
52044;DHT22;38053;53.100;6.078;2023-06-19T13:34:21;29.30;99.10
52044;DHT22;38053;53.100;6.078;2023-06-19T13:36:48;29.10;98.40
52044;DHT22;38053;53.100;6.078;2023-06-19T13:39:14;29.30;98.40
52044;DHT22;38053;53.100;6.078;2023-06-19T13:41:40;29.40;96.50
52044;DHT22;38053;53.100;6.078;2023-06-19T13:44:06;29.50;97.20
52044;DHT22;38053;53.100;6.078;2023-06-19T13:46:32;29.40;97.30
52044;DHT22;38053;53.100;6.078;2023-06-19T13:48:58;29.40;96.50
52044;DHT22;38053;53.100;6.078;2023-06-19T13:51:24;29.60;96.40
52044;DHT22;38053;53.100;6.078;2023-06-19T13:53:50;29.90;95.70
52044;DHT22;38053;53.100;6.078;2023-06-19T13:56:16;29.60;95.70
52044;DHT22;38053;53.100;6.078;2023-06-19T13:58:42;29.60;95.90
52044;DHT22;38053;53.100;6.078;2023-06-19T14:01:08;29.60;96.80
52044;DHT22;38053;53.100;6.078;2023-06-19T14:03:38;29.40;96.20
52044;DHT22;38053;53.100;6.078;2023-06-19T14:06:05;29.30;95.50
52044;DHT22;38053;53.100;6.078;2023-06-19T14:08:31;29.50;96.60
52044;DHT22;38053;53.100;6.078;2023-06-19T14:10:58;29.60;95.30
52044;DHT22;38053;53.100;6.078;2023-06-19T14:13:24;29.40;96.10
52044;DHT22;38053;53.100;6.078;2023-06-19T14:15:50;29.20;96.80
52044;DHT22;38053;53.100;6.078;2023-06-19T14:18:16;29.00;95.70
52044;DHT22;38053;53.100;6.078;2023-06-19T14:20:42;28.90;96.00
52044;DHT22;38053;53.100;6.078;2023-06-19T14:23:08;28.50;95.00
52044;DHT22;38053;53.100;6.078;2023-06-19T14:25:35;28.70;95.70
52044;DHT22;38053;53.100;6.078;2023-06-19T14:28:01;28.80;93.90
52044;DHT22;38053;53.100;6.078;2023-06-19T14:30:26;28.70;95.40
52044;DHT22;38053;53.100;6.078;2023-06-19T14:32:52;28.40;95.40
52044;DHT22;38053;53.100;6.078;2023-06-19T14:35:18;28.10;95.70
52044;DHT22;38053;53.100;6.078;2023-06-19T14:37:44;27.70;96.00
52044;DHT22;38053;53.100;6.078;2023-06-19T14:40:10;27.40;96.60
52044;DHT22;38053;53.100;6.078;2023-06-19T14:42:36;27.60;97.00
52044;DHT22;38053;53.100;6.078;2023-06-19T14:45:02;28.10;96.10
52044;DHT22;38053;53.100;6.078;2023-06-19T14:47:30;28.30;97.10
52044;DHT22;38053;53.100;6.078;2023-06-19T14:49:56;28.70;96.60
52044;DHT22;38053;53.100;6.078;2023-06-19T14:52:22;29.10;96.20
52044;DHT22;38053;53.100;6.078;2023-06-19T14:54:47;29.40;95.90
52044;DHT22;38053;53.100;6.078;2023-06-19T14:57:16;29.70;94.80
52044;DHT22;38053;53.100;6.078;2023-06-19T14:59:42;29.70;94.20
52044;DHT22;38053;53.100;6.078;2023-06-19T15:02:08;29.20;95.70
52044;DHT22;38053;53.100;6.078;2023-06-19T15:04:35;29.20;95.30
52044;DHT22;38053;53.100;6.078;2023-06-19T15:07:00;29.20;95.50
52044;DHT22;38053;53.100;6.078;2023-06-19T15:09:27;29.10;94.90
52044;DHT22;38053;53.100;6.078;2023-06-19T15:11:53;29.10;95.80
52044;DHT22;38053;53.100;6.078;2023-06-19T15:14:18;28.90;95.70
52044;DHT22;38053;53.100;6.078;2023-06-19T15:16:46;28.80;95.30
52044;DHT22;38053;53.100;6.078;2023-06-19T15:19:12;28.70;95.90
52044;DHT22;38053;53.100;6.078;2023-06-19T15:21:40;28.60;95.90
52044;DHT22;38053;53.100;6.078;2023-06-19T15:24:07;28.60;95.50
52044;DHT22;38053;53.100;6.078;2023-06-19T15:26:34;28.80;95.50
52044;DHT22;38053;53.100;6.078;2023-06-19T15:29:01;29.40;93.60
52044;DHT22;38053;53.100;6.078;2023-06-19T15:31:26;29.50;94.00
52044;DHT22;38053;53.100;6.078;2023-06-19T15:33:52;29.40;93.90